Time;durP1;ratioP1;P1;durP2;ratioP2;P2;SDS_P1;SDS_P2;PMS_P1;PMS_P2;Temp;Humidity;BMP_temperature;BMP_pressure;BME280_temperature;BME280_humidity;BME280_pressure;Samples;Min_cycle;Max_cycle;Signal;HPM_P1;HPM_P2
2024/01/17 00:00:13;;;;;;;222.45;113.97;;;-1.00;1.00;;;;;;6157018;23;20411;-75
2024/01/17 00:02:42;;;;;;;186.30;98.45;;;-1.00;99.90;;;;;;6157124;23;20068;-74
2024/01/17 00:05:11;;;;;;;204.70;106.68;;;-1.00;1.00;;;;;;6192671;23;20009;-74
2024/01/17 00:07:40;;;;;;;189.27;97.47;;;-1.00;78.40;;;;;;6193412;23;20073;-74
2024/01/17 00:10:09;;;;;;;246.75;124.05;;;-0.80;99.90;;;;;;6193157;23;20022;-74
2024/01/17 00:12:36;;;;;;;293.95;146.80;;;-0.70;23.70;;;;;;6157100;23;20413;-75
2024/01/17 00:15:04;;;;;;;305.73;160.38;;;-0.80;89.40;;;;;;6196204;23;20013;-74
2024/01/17 00:17:31;;;;;;;293.42;152.38;;;-0.80;95.30;;;;;;6209816;23;20040;-74
2024/01/17 00:19:59;;;;;;;293.80;151.20;;;-0.80;1.00;;;;;;6216862;23;20029;-75
2024/01/17 00:22:27;;;;;;;325.35;173.65;;;-0.70;1.00;;;;;;6215566;23;20032;-75
2024/01/17 00:24:56;;;;;;;305.00;159.63;;;-0.70;99.90;;;;;;6204559;23;20009;-75
2024/01/17 00:27:25;;;;;;;298.00;156.32;;;-0.70;99.90;;;;;;6194716;23;20048;-75
2024/01/17 00:29:57;;;;;;;315.55;168.95;;;-0.70;1.00;;;;;;6193435;23;20906;-74
2024/01/17 00:32:24;;;;;;;294.65;154.98;;;-0.60;99.90;;;;;;6192920;23;20036;-74
2024/01/17 00:34:52;;;;;;;246.38;128.82;;;-0.60;1.00;;;;;;6148997;23;20327;-74
2024/01/17 00:37:20;;;;;;;189.57;97.43;;;-0.60;1.00;;;;;;6163268;23;20027;-74
2024/01/17 00:39:47;;;;;;;194.80;104.00;;;-0.50;1.00;;;;;;6163962;23;20343;-75
2024/01/17 00:42:16;;;;;;;172.18;88.90;;;-0.50;1.00;;;;;;6163970;23;20072;-74
2024/01/17 00:44:44;;;;;;;143.85;73.13;;;-0.60;22.40;;;;;;6162851;23;20033;-76
2024/01/17 00:47:11;;;;;;;141.65;74.22;;;-0.60;99.90;;;;;;6163469;23;20092;-76
2024/01/17 00:49:39;;;;;;;153.55;80.00;;;-0.60;1.00;;;;;;6177913;23;20017;-76
2024/01/17 00:52:07;;;;;;;130.80;68.82;;;-0.50;99.90;;;;;;6187092;23;20020;-75
2024/01/17 00:54:35;;;;;;;130.48;67.20;;;-0.50;1.00;;;;;;6165187;23;20502;-75
2024/01/17 00:57:03;;;;;;;134.02;71.18;;;-0.50;1.00;;;;;;6176247;23;20158;-75
2024/01/17 00:59:36;;;;;;;155.15;80.15;;;-0.40;1.00;;;;;;6164039;23;20334;-74
2024/01/17 01:02:04;;;;;;;144.43;75.45;;;-0.40;1.00;;;;;;6167444;23;20014;-74
2024/01/17 01:04:31;;;;;;;158.88;81.55;;;-0.30;99.90;;;;;;6169082;23;20013;-76
2024/01/17 01:06:59;;;;;;;168.85;88.60;;;-0.30;99.90;;;;;;6170541;23;20077;-74
2024/01/17 01:09:26;;;;;;;195.82;99.00;;;-0.30;99.90;;;;;;6166603;23;20505;-74
2024/01/17 01:11:54;;;;;;;162.23;83.70;;;-0.20;99.90;;;;;;6176021;23;20013;-75
2024/01/17 01:14:21;;;;;;;144.85;74.30;;;-0.30;1.00;;;;;;6162970;23;20013;-73
2024/01/17 01:16:51;;;;;;;140.27;74.22;;;-0.30;99.90;;;;;;6163139;23;20025;-74
2024/01/17 01:19:18;;;;;;;134.70;70.95;;;-0.30;99.90;;;;;;6177032;23;20347;-75
2024/01/17 01:21:46;;;;;;;111.88;61.30;;;-0.30;24.60;;;;;;6165583;23;20389;-76
2024/01/17 01:24:13;;;;;;;118.88;62.38;;;-0.30;99.90;;;;;;6178231;23;20426;-73
2024/01/17 01:26:42;;;;;;;122.25;65.22;;;-0.40;1.00;;;;;;6163722;23;20018;-75
2024/01/17 01:29:10;;;;;;;141.45;72.28;;;-0.30;1.00;;;;;;6151430;23;20045;-74
2024/01/17 01:31:37;;;;;;;117.38;65.10;;;-0.20;1.00;;;;;;6164244;23;20468;-73
2024/01/17 01:34:06;;;;;;;94.65;51.47;;;-0.30;99.90;;;;;;6180576;23;20517;-74
2024/01/17 01:36:34;;;;;;;102.55;52.92;;;-0.30;99.90;;;;;;6157400;23;20029;-75
2024/01/17 01:39:01;;;;;;;106.13;55.88;;;-0.20;1.00;;;;;;6193914;23;20017;-74
2024/01/17 01:41:29;;;;;;;107.00;57.28;;;-0.20;99.90;;;;;;6194030;23;20017;-75
2024/01/17 01:43:56;;;;;;;109.57;58.58;;;-0.30;99.90;;;;;;6209289;23;20013;-75
2024/01/17 01:46:27;;;;;;;114.15;59.60;;;-0.40;99.90;;;;;;6210596;23;20013;-76
2024/01/17 01:48:55;;;;;;;143.27;76.00;;;-0.30;1.00;;;;;;6208877;23;20009;-74
2024/01/17 01:51:25;;;;;;;140.00;75.43;;;-0.20;1.00;;;;;;6200011;23;20097;-73
2024/01/17 01:53:58;;;;;;;147.13;79.78;;;-0.20;1.00;;;;;;6192662;23;20360;-75
2024/01/17 01:56:28;;;;;;;177.68;94.85;;;0.00;1.00;;;;;;6195705;23;20013;-74
2024/01/17 01:59:00;;;;;;;177.00;94.50;;;0.00;1.00;;;;;;6207417;23;20116;-76
2024/01/17 02:01:29;;;;;;;176.25;95.60;;;0.00;1.00;;;;;;6208503;23;20013;-75
2024/01/17 02:03:59;;;;;;;148.13;79.72;;;0.00;1.00;;;;;;6215117;23;20009;-75
2024/01/17 02:06:31;;;;;;;150.50;78.60;;;-0.10;1.00;;;;;;6212775;23;20089;-76
2024/01/17 02:08:59;;;;;;;146.27;78.32;;;-0.20;1.00;;;;;;6209199;23;20418;-75
2024/01/17 02:11:29;;;;;;;141.60;76.03;;;-0.20;1.00;;;;;;6202630;23;20013;-75
2024/01/17 02:13:56;;;;;;;129.38;72.60;;;-0.10;1.00;;;;;;6213881;23;20013;-74
2024/01/17 02:16:24;;;;;;;119.65;65.22;;;-0.20;99.90;;;;;;6202245;23;20099;-75
2024/01/17 02:18:52;;;;;;;134.75;72.10;;;-0.20;99.90;;;;;;6211586;23;20021;-77
2024/01/17 02:21:20;;;;;;;128.85;72.97;;;-0.20;99.90;;;;;;6176681;23;20027;-75
2024/01/17 02:23:51;;;;;;;112.97;60.83;;;-0.20;99.90;;;;;;6206106;23;20045;-74
2024/01/17 02:26:19;;;;;;;117.45;64.28;;;-0.10;99.90;;;;;;6193283;23;20025;-76
2024/01/17 02:28:46;;;;;;;100.80;57.03;;;-0.10;1.00;;;;;;6199535;23;20023;-76
2024/01/17 02:31:15;;;;;;;118.03;64.97;;;-0.10;99.90;;;;;;6156082;23;20017;-76
2024/01/17 02:33:44;;;;;;;115.78;61.83;;;-0.10;79.20;;;;;;6191306;23;20362;-75
2024/01/17 02:36:11;;;;;;;108.15;59.85;;;-0.10;1.00;;;;;;6201394;23;20044;-74
2024/01/17 02:38:40;;;;;;;103.13;55.35;;;-0.20;1.00;;;;;;6192032;23;20013;-74
2024/01/17 02:41:09;;;;;;;109.55;57.88;;;-0.30;1.00;;;;;;6203731;23;20013;-76
2024/01/17 02:43:37;;;;;;;104.18;58.28;;;-0.30;1.00;;;;;;6205812;23;20454;-74
2024/01/17 02:46:05;;;;;;;98.75;54.65;;;-0.30;56.40;;;;;;6199752;23;20013;-73
2024/01/17 02:48:32;;;;;;;113.97;60.30;;;-0.20;99.90;;;;;;6192044;23;20025;-75
2024/01/17 02:51:00;;;;;;;114.35;64.55;;;-0.20;99.90;;;;;;6192018;23;20017;-74
2024/01/17 02:53:27;;;;;;;119.95;64.85;;;-0.20;1.00;;;;;;6191828;23;20071;-73
2024/01/17 02:55:54;;;;;;;116.95;63.85;;;-0.30;1.00;;;;;;6192348;23;20052;-75
2024/01/17 02:58:23;;;;;;;115.13;65.50;;;-0.30;1.00;;;;;;6197101;23;20469;-74
2024/01/17 03:00:51;;;;;;;119.22;63.63;;;-0.40;99.90;;;;;;6195072;23;20013;-74
2024/01/17 03:03:18;;;;;;;117.97;62.58;;;-0.50;99.90;;;;;;6181132;23;20461;-74
2024/01/17 03:05:46;;;;;;;111.47;61.45;;;-0.60;67.50;;;;;;6192511;23;20020;-74
2024/01/17 03:08:13;;;;;;;104.32;59.60;;;-0.50;1.00;;;;;;6193547;23;20060;-74
2024/01/17 03:10:41;;;;;;;109.35;60.25;;;-0.50;99.90;;;;;;6156370;23;20088;-75
2024/01/17 03:13:12;;;;;;;100.90;57.35;;;-0.60;1.00;;;;;;6193350;23;20033;-76
2024/01/17 03:15:41;;;;;;;100.65;56.65;;;-0.50;1.00;;;;;;6194203;23;20068;-74
2024/01/17 03:18:13;;;;;;;107.75;61.33;;;-0.40;99.90;;;;;;6156824;23;20057;-75
2024/01/17 03:20:41;;;;;;;111.15;58.47;;;-0.50;1.00;;;;;;6194007;23;20450;-75
2024/01/17 03:23:08;;;;;;;114.32;61.85;;;-0.40;1.00;;;;;;6158069;23;20025;-75
2024/01/17 03:25:36;;;;;;;109.55;61.55;;;-0.40;1.00;;;;;;6194078;23;20051;-74
2024/01/17 03:28:03;;;;;;;115.63;66.15;;;-0.30;99.90;;;;;;6158196;23;20052;-73
2024/01/17 03:30:32;;;;;;;109.30;60.83;;;-0.30;1.00;;;;;;6193809;23;20013;-74
2024/01/17 03:33:01;;;;;;;106.28;58.00;;;-0.30;1.00;;;;;;6182047;23;20023;-73
2024/01/17 03:35:28;;;;;;;171.10;90.95;;;-0.30;99.90;;;;;;6193345;23;20020;-76
2024/01/17 03:37:57;;;;;;;135.30;73.32;;;-0.40;1.00;;;;;;6193903;23;20013;-74
2024/01/17 03:40:25;;;;;;;145.20;78.38;;;-0.40;1.00;;;;;;6182194;23;20068;-75
2024/01/17 03:42:52;;;;;;;136.13;74.63;;;-0.60;76.70;;;;;;6196062;23;20024;-74
2024/01/17 03:45:20;;;;;;;128.05;67.97;;;-0.70;1.00;;;;;;6196723;23;20096;-73
2024/01/17 03:47:47;;;;;;;110.82;62.15;;;-0.80;1.00;;;;;;6194991;23;20043;-75
2024/01/17 03:50:16;;;;;;;111.03;61.15;;;-0.70;1.00;;;;;;6193935;23;20013;-76
2024/01/17 03:52:43;;;;;;;127.00;66.70;;;-0.60;1.00;;;;;;6181832;23;20017;-74
2024/01/17 03:55:11;;;;;;;109.63;60.45;;;-0.70;1.00;;;;;;6193628;23;20013;-75
2024/01/17 03:57:38;;;;;;;96.43;55.80;;;-0.80;99.90;;;;;;6197929;23;20067;-74
2024/01/17 04:00:08;;;;;;;105.93;58.17;;;-0.70;1.00;;;;;;6194667;23;20017;-74
2024/01/17 04:02:36;;;;;;;109.70;59.17;;;-0.70;1.00;;;;;;6193027;23;20041;-74
2024/01/17 04:05:02;;;;;;;107.20;57.97;;;-0.80;1.00;;;;;;6156569;23;20394;-73
2024/01/17 04:07:31;;;;;;;105.28;54.08;;;-0.80;1.00;;;;;;6181227;23;20021;-73
2024/01/17 04:09:59;;;;;;;89.82;46.85;;;-0.80;1.00;;;;;;6192294;23;20115;-74
2024/01/17 04:12:26;;;;;;;89.03;47.40;;;-0.70;21.80;;;;;;6193331;23;20024;-75
2024/01/17 04:14:54;;;;;;;90.05;46.78;;;-0.60;99.90;;;;;;6155835;23;20017;-73
2024/01/17 04:17:21;;;;;;;83.53;46.63;;;-0.60;1.00;;;;;;6193044;23;20017;-72
2024/01/17 04:19:49;;;;;;;103.35;54.47;;;-0.60;1.00;;;;;;6157656;23;20017;-75
2024/01/17 04:22:16;;;;;;;92.35;50.47;;;-0.70;1.00;;;;;;6197036;23;20020;-75
2024/01/17 04:24:45;;;;;;;92.28;50.35;;;-0.70;1.00;;;;;;6197955;23;20021;-75
2024/01/17 04:27:13;;;;;;;92.43;52.15;;;-0.70;1.00;;;;;;6200030;23;20017;-75
2024/01/17 04:29:40;;;;;;;93.07;50.80;;;-0.70;1.00;;;;;;6204345;23;20017;-74
2024/01/17 04:32:08;;;;;;;68.78;40.63;;;-0.70;1.00;;;;;;6210813;23;19997;-76
2024/01/17 04:34:38;;;;;;;86.07;48.80;;;-0.60;1.00;;;;;;6209297;23;20032;-74
2024/01/17 04:37:08;;;;;;;90.00;49.38;;;-0.60;1.00;;;;;;6199921;23;20023;-75
2024/01/17 04:39:35;;;;;;;95.80;51.30;;;-0.40;1.00;;;;;;6193781;23;20013;-75
2024/01/17 04:42:04;;;;;;;82.97;46.78;;;-0.30;1.00;;;;;;6195967;23;20358;-74
2024/01/17 04:44:35;;;;;;;82.00;44.05;;;-0.30;1.00;;;;;;6194874;23;20024;-74
2024/01/17 04:47:11;;;;;;;80.05;45.30;;;-0.30;99.90;;;;;;6195420;23;20017;-73
2024/01/17 04:49:38;;;;;;;82.07;45.95;;;-0.30;1.00;;;;;;6210346;23;20074;-77
2024/01/17 04:52:06;;;;;;;80.03;45.72;;;-0.30;99.90;;;;;;6198342;23;20013;-74
2024/01/17 04:54:35;;;;;;;79.72;44.28;;;-0.40;1.00;;;;;;6213662;23;20039;-76
2024/01/17 04:57:05;;;;;;;89.75;52.25;;;-0.50;1.00;;;;;;6208820;23;20623;-74
2024/01/17 04:59:32;;;;;;;81.60;45.33;;;-0.40;1.00;;;;;;6171313;23;20017;-74
2024/01/17 05:02:00;;;;;;;80.70;45.47;;;-0.50;1.00;;;;;;6170292;23;20033;-77
2024/01/17 05:04:29;;;;;;;77.57;45.60;;;-0.50;99.90;;;;;;6205733;23;20009;-75
2024/01/17 05:06:56;;;;;;;87.57;49.92;;;-0.30;1.00;;;;;;6202555;23;20445;-76
2024/01/17 05:09:24;;;;;;;84.63;49.10;;;-0.20;1.00;;;;;;6194225;23;20037;-75
2024/01/17 05:11:52;;;;;;;87.57;50.78;;;-0.10;1.00;;;;;;6194918;23;20013;-76
2024/01/17 05:14:21;;;;;;;89.03;49.65;;;-0.10;1.00;;;;;;6196709;23;20021;-75
2024/01/17 05:16:48;;;;;;;78.75;46.20;;;0.00;1.00;;;;;;6211332;23;20017;-76
2024/01/17 05:19:17;;;;;;;86.88;48.83;;;0.00;1.00;;;;;;6207694;23;20009;-75
2024/01/17 05:21:44;;;;;;;76.00;43.35;;;0.00;6.80;;;;;;6206861;23;20025;-76
2024/01/17 05:24:11;;;;;;;87.50;50.60;;;0.10;1.00;;;;;;6203886;23;20009;-75
2024/01/17 05:26:39;;;;;;;88.30;50.33;;;0.20;1.00;;;;;;6198535;23;20373;-74
2024/01/17 05:29:07;;;;;;;90.00;53.05;;;0.10;99.90;;;;;;6194703;23;20017;-74
2024/01/17 05:31:36;;;;;;;94.40;52.63;;;0.10;24.90;;;;;;6195580;23;20101;-74
2024/01/17 05:34:03;;;;;;;80.00;45.53;;;0.10;1.00;;;;;;6193898;23;20059;-74
2024/01/17 05:36:31;;;;;;;79.25;45.75;;;0.00;1.00;;;;;;6194722;23;20035;-76
2024/01/17 05:38:58;;;;;;;83.72;48.63;;;0.10;1.00;;;;;;6193538;23;20025;-75
2024/01/17 05:41:25;;;;;;;76.68;47.05;;;0.00;99.90;;;;;;6158193;23;20025;-74
2024/01/17 05:43:53;;;;;;;79.10;45.25;;;0.10;1.00;;;;;;6192732;23;20637;-74
2024/01/17 05:46:20;;;;;;;80.10;46.53;;;0.20;99.90;;;;;;6182134;23;20013;-74
2024/01/17 05:48:49;;;;;;;99.00;55.28;;;0.20;1.00;;;;;;6193846;23;20013;-73
2024/01/17 05:51:16;;;;;;;82.97;47.55;;;0.30;1.00;;;;;;6158065;23;20046;-76
2024/01/17 05:53:44;;;;;;;72.63;44.30;;;0.20;1.00;;;;;;6191723;23;20025;-73
2024/01/17 05:56:11;;;;;;;78.28;48.53;;;0.20;1.00;;;;;;6193430;23;20032;-76
2024/01/17 05:58:39;;;;;;;86.80;50.28;;;0.30;1.00;;;;;;6194741;23;20430;-73
2024/01/17 06:01:06;;;;;;;93.20;53.08;;;0.50;1.00;;;;;;6193289;23;20017;-74
2024/01/17 06:03:33;;;;;;;98.22;54.75;;;0.40;1.00;;;;;;6192695;23;20020;-74
2024/01/17 06:06:02;;;;;;;108.25;54.83;;;0.40;99.90;;;;;;6193647;23;20021;-75
2024/01/17 06:08:30;;;;;;;162.30;81.07;;;0.50;1.00;;;;;;6193617;23;20017;-75
2024/01/17 06:10:57;;;;;;;255.30;117.00;;;0.50;99.90;;;;;;6194219;23;20059;-74
2024/01/17 06:13:25;;;;;;;174.30;85.82;;;0.60;1.00;;;;;;6195617;23;20047;-76
2024/01/17 06:15:52;;;;;;;137.23;71.80;;;0.50;1.00;;;;;;6199441;23;20024;-76
2024/01/17 06:18:20;;;;;;;140.25;72.28;;;0.60;99.90;;;;;;6161580;23;20032;-76
2024/01/17 06:20:53;;;;;;;124.65;67.90;;;0.60;1.00;;;;;;6196909;23;20009;-75
2024/01/17 06:23:22;;;;;;;167.13;84.07;;;0.60;99.90;;;;;;6194036;23;20105;-77
2024/01/17 06:25:50;;;;;;;212.07;104.10;;;0.60;99.90;;;;;;6192896;23;20024;-74
2024/01/17 06:28:19;;;;;;;161.82;84.97;;;0.70;16.60;;;;;;6192418;23;20519;-74
2024/01/17 06:30:46;;;;;;;199.25;99.30;;;0.80;1.00;;;;;;6191919;23;20108;-76
2024/01/17 06:33:14;;;;;;;166.63;87.15;;;0.80;1.00;;;;;;6174875;23;20450;-75
2024/01/17 06:35:41;;;;;;;182.98;93.72;;;0.80;1.00;;;;;;6162257;23;20029;-75
2024/01/17 06:38:08;;;;;;;206.70;99.78;;;0.90;1.00;;;;;;6163009;23;20017;-75
2024/01/17 06:40:37;;;;;;;177.13;95.53;;;0.90;1.00;;;;;;6177417;23;20028;-78
2024/01/17 06:43:05;;;;;;;140.88;78.65;;;0.90;99.90;;;;;;6164468;23;20021;-76
2024/01/17 06:45:32;;;;;;;135.05;74.18;;;1.00;1.00;;;;;;6153448;23;20020;-76
2024/01/17 06:48:02;;;;;;;125.25;69.68;;;1.20;1.00;;;;;;6173615;23;20032;-75
2024/01/17 06:50:29;;;;;;;131.95;72.90;;;1.20;99.90;;;;;;6186199;23;20013;-78
2024/01/17 06:52:57;;;;;;;137.48;76.85;;;1.20;99.90;;;;;;6184591;23;20013;-76
2024/01/17 06:55:25;;;;;;;134.23;72.75;;;1.30;1.00;;;;;;6168850;23;20068;-75
2024/01/17 06:57:54;;;;;;;137.25;72.97;;;1.20;1.00;;;;;;6165093;23;20434;-76
2024/01/17 07:00:24;;;;;;;109.53;58.72;;;1.20;1.50;;;;;;6166116;23;20018;-74
2024/01/17 07:02:51;;;;;;;140.23;76.13;;;1.20;1.00;;;;;;6157439;23;20025;-75
2024/01/17 07:05:19;;;;;;;141.57;78.10;;;1.30;99.90;;;;;;6168392;23;20041;-73
2024/01/17 07:07:47;;;;;;;144.52;81.80;;;1.40;99.90;;;;;;6165780;23;20026;-74
2024/01/17 07:10:14;;;;;;;150.15;81.75;;;1.50;1.00;;;;;;6154123;23;20327;-74
2024/01/17 07:12:42;;;;;;;160.50;85.97;;;1.60;1.00;;;;;;6165880;23;20020;-75
2024/01/17 07:15:11;;;;;;;185.02;101.38;;;1.70;1.00;;;;;;6164116;23;20064;-76
2024/01/17 07:17:39;;;;;;;201.00;105.57;;;1.80;99.90;;;;;;6164248;23;20084;-74
2024/01/17 07:20:07;;;;;;;198.38;110.80;;;1.90;1.00;;;;;;6164225;23;20029;-74
2024/01/17 07:22:38;;;;;;;219.32;114.07;;;1.90;99.90;;;;;;6163892;23;20021;-74
2024/01/17 07:25:06;;;;;;;207.13;109.35;;;2.00;1.00;;;;;;6176897;23;20423;-74
2024/01/17 07:27:34;;;;;;;190.73;103.45;;;2.10;1.00;;;;;;6178114;23;20087;-75
2024/01/17 07:30:01;;;;;;;226.13;122.07;;;2.10;99.90;;;;;;6178055;23;20050;-74
2024/01/17 07:32:30;;;;;;;199.85;111.20;;;2.10;99.90;;;;;;6152507;23;20390;-75
2024/01/17 07:34:58;;;;;;;218.73;121.70;;;2.10;99.90;;;;;;6191699;23;20052;-75
2024/01/17 07:37:25;;;;;;;227.02;119.55;;;2.20;1.00;;;;;;6204427;23;20017;-75
2024/01/17 07:39:52;;;;;;;207.75;111.72;;;2.40;99.90;;;;;;6204486;23;20017;-77
2024/01/17 07:42:21;;;;;;;181.65;98.93;;;2.50;1.00;;;;;;6200416;23;20087;-75
2024/01/17 07:44:49;;;;;;;178.13;96.45;;;2.60;1.00;;;;;;6193677;23;20092;-75
2024/01/17 07:47:17;;;;;;;219.52;117.78;;;2.80;1.00;;;;;;6193974;23;20323;-76
2024/01/17 07:49:46;;;;;;;304.92;160.63;;;2.70;99.90;;;;;;6193245;23;20088;-74
2024/01/17 07:52:14;;;;;;;235.20;125.05;;;2.80;99.90;;;;;;6193485;23;20060;-74
2024/01/17 07:54:41;;;;;;;286.40;149.18;;;2.80;99.90;;;;;;6156751;23;20017;-74
2024/01/17 07:57:11;;;;;;;230.27;123.90;;;2.90;1.00;;;;;;6193624;23;20060;-74
2024/01/17 07:59:38;;;;;;;216.45;118.70;;;2.90;1.00;;;;;;6194194;23;20052;-75
2024/01/17 08:02:05;;;;;;;234.50;129.95;;;2.80;1.00;;;;;;6194316;23;20020;-75
2024/01/17 08:04:33;;;;;;;250.48;135.82;;;2.80;99.90;;;;;;6181621;23;20104;-73
2024/01/17 08:07:02;;;;;;;226.75;121.72;;;2.90;99.90;;;;;;6157004;23;20407;-74
2024/01/17 08:09:30;;;;;;;232.90;128.63;;;3.10;1.00;;;;;;6157556;23;20083;-73
2024/01/17 08:11:59;;;;;;;255.38;140.43;;;3.20;99.90;;;;;;6193064;23;20013;-73
2024/01/17 08:14:27;;;;;;;240.80;137.38;;;3.10;25.40;;;;;;6192955;23;20020;-74
2024/01/17 08:16:54;;;;;;;279.73;159.57;;;3.20;99.90;;;;;;6194522;23;20045;-74
2024/01/17 08:19:22;;;;;;;296.95;170.18;;;3.30;75.20;;;;;;6181530;23;20017;-74
2024/01/17 08:21:51;;;;;;;292.77;163.85;;;3.40;99.90;;;;;;6193503;23;20057;-75
2024/01/17 08:24:20;;;;;;;277.38;158.65;;;3.60;99.90;;;;;;6192374;23;20043;-74
2024/01/17 08:26:47;;;;;;;260.70;151.00;;;3.80;1.00;;;;;;6193757;23;20693;-74
2024/01/17 08:29:17;;;;;;;267.27;157.70;;;3.80;1.00;;;;;;6193492;23;20052;-74
2024/01/17 08:31:45;;;;;;;265.40;158.27;;;3.80;99.90;;;;;;6193030;23;20023;-75
2024/01/17 08:34:13;;;;;;;267.58;156.57;;;4.00;99.90;;;;;;6192990;23;20017;-74
2024/01/17 08:36:40;;;;;;;257.73;151.18;;;4.10;99.90;;;;;;6193481;23;20013;-75
2024/01/17 08:39:07;;;;;;;266.08;153.32;;;4.20;1.00;;;;;;6182370;23;20020;-74
2024/01/17 08:41:37;;;;;;;266.08;154.57;;;4.30;1.00;;;;;;6196659;23;20013;-74
2024/01/17 08:44:30;;;;;;;267.55;159.20;;;4.40;1.00;;;;;;6187117;23;20035;-75
2024/01/17 08:46:59;;;;;;;251.68;151.68;;;4.30;1.00;;;;;;6195169;23;20036;-74
2024/01/17 08:49:26;;;;;;;257.05;150.05;;;4.30;1.00;;;;;;6157278;23;20040;-75
2024/01/17 08:51:54;;;;;;;247.40;145.00;;;4.40;1.00;;;;;;6193179;23;20087;-76
2024/01/17 08:54:22;;;;;;;248.40;149.10;;;4.40;1.00;;;;;;6195675;23;20129;-75
2024/01/17 08:56:51;;;;;;;264.90;153.80;;;4.30;99.90;;;;;;6193877;23;20021;-75
2024/01/17 08:59:18;;;;;;;258.42;152.25;;;4.30;1.00;;;;;;6182975;23;20016;-74
2024/01/17 09:01:46;;;;;;;254.60;151.05;;;4.30;1.00;;;;;;6192843;23;20024;-76
2024/01/17 09:04:13;;;;;;;251.55;149.35;;;4.40;1.00;;;;;;6181071;23;20021;-77
2024/01/17 09:06:41;;;;;;;236.43;143.77;;;4.40;1.00;;;;;;6193322;23;20079;-73
2024/01/17 09:09:11;;;;;;;232.93;136.23;;;4.60;1.00;;;;;;6183515;23;20013;-75
2024/01/17 09:11:39;;;;;;;241.02;144.57;;;4.80;1.00;;;;;;6157746;23;20023;-75
2024/01/17 09:14:10;;;;;;;243.02;150.00;;;4.90;99.90;;;;;;6194019;23;20431;-74
2024/01/17 09:16:37;;;;;;;244.35;147.40;;;5.00;99.90;;;;;;6195274;23;20040;-74
2024/01/17 09:19:04;;;;;;;252.77;153.65;;;5.10;99.90;;;;;;6194964;23;20728;-75
2024/01/17 09:21:33;;;;;;;261.35;161.02;;;5.10;99.90;;;;;;6194291;23;20017;-75
2024/01/17 09:24:00;;;;;;;261.48;158.68;;;5.40;99.90;;;;;;6194433;23;20013;-75
2024/01/17 09:26:28;;;;;;;251.77;152.15;;;5.40;1.00;;;;;;6195975;23;20021;-75
2024/01/17 09:28:55;;;;;;;249.48;151.43;;;5.40;1.00;;;;;;6159291;23;20060;-73
2024/01/17 09:31:24;;;;;;;250.93;155.13;;;5.50;1.00;;;;;;6196453;23;20435;-75
2024/01/17 09:33:52;;;;;;;256.55;153.20;;;5.70;1.00;;;;;;6195506;23;20017;-74
2024/01/17 09:36:20;;;;;;;243.20;148.80;;;5.80;1.00;;;;;;6198945;23;20063;-75
2024/01/17 09:38:47;;;;;;;249.50;152.50;;;6.00;1.00;;;;;;6202966;23;20039;-75
2024/01/17 09:41:16;;;;;;;244.10;150.30;;;6.10;1.00;;;;;;6197656;23;20081;-76
2024/01/17 09:43:45;;;;;;;273.23;170.57;;;6.30;1.00;;;;;;6157362;23;20216;-75
2024/01/17 09:46:13;;;;;;;269.35;161.13;;;6.50;1.00;;;;;;6193811;23;20059;-75
2024/01/17 09:48:43;;;;;;;270.30;164.63;;;6.50;1.00;;;;;;6196081;23;20025;-76
2024/01/17 09:51:16;;;;;;;256.77;155.40;;;6.60;1.00;;;;;;6193958;23;20104;-74
2024/01/17 09:53:47;;;;;;;266.00;164.90;;;6.80;1.00;;;;;;6192501;23;20071;-74
2024/01/17 09:56:16;;;;;;;267.10;162.90;;;6.80;1.00;;;;;;6192666;23;20066;-75
2024/01/17 09:58:46;;;;;;;282.23;175.90;;;6.70;1.00;;;;;;6193252;23;20017;-75
2024/01/17 10:01:15;;;;;;;288.95;178.48;;;6.60;1.00;;;;;;6193560;23;20029;-74
2024/01/17 10:03:47;;;;;;;286.67;184.98;;;6.70;1.00;;;;;;6157314;23;20120;-75
2024/01/17 10:06:17;;;;;;;279.20;180.98;;;6.80;1.00;;;;;;6182050;23;20017;-75
2024/01/17 10:08:46;;;;;;;289.83;181.05;;;6.90;1.00;;;;;;6195074;23;20021;-74
2024/01/17 10:11:14;;;;;;;280.15;181.98;;;7.10;1.00;;;;;;6158248;23;20017;-75
2024/01/17 10:13:42;;;;;;;283.65;178.75;;;7.20;1.00;;;;;;6188733;23;20013;-76
2024/01/17 10:16:09;;;;;;;284.92;178.05;;;7.40;1.00;;;;;;6183028;23;20028;-74
2024/01/17 10:18:37;;;;;;;284.55;180.43;;;7.70;99.90;;;;;;6194157;23;20013;-74
2024/01/17 10:21:06;;;;;;;281.98;176.82;;;7.80;99.90;;;;;;6164096;23;20082;-74
2024/01/17 10:23:37;;;;;;;281.00;178.77;;;7.90;99.90;;;;;;6195594;23;20027;-74
2024/01/17 10:26:05;;;;;;;273.40;177.38;;;8.00;99.90;;;;;;6200602;23;20040;-77
2024/01/17 10:28:33;;;;;;;280.60;187.27;;;8.00;99.90;;;;;;6203265;23;20017;-74
2024/01/17 10:31:04;;;;;;;275.70;180.77;;;8.20;99.90;;;;;;6198735;23;20013;-76
2024/01/17 10:33:32;;;;;;;285.98;186.77;;;8.30;92.60;;;;;;6197215;23;20021;-74
2024/01/17 10:36:01;;;;;;;288.27;188.43;;;8.30;56.40;;;;;;6194517;23;20010;-74
2024/01/17 10:38:33;;;;;;;283.55;190.00;;;8.20;99.90;;;;;;6193445;23;20519;-77
2024/01/17 10:41:09;;;;;;;282.75;187.55;;;8.30;99.90;;;;;;6195936;23;20494;-75
2024/01/17 10:43:54;;;;;;;299.27;201.30;;;8.40;99.90;;;;;;6201877;23;20487;-75
2024/01/17 10:46:22;;;;;;;321.83;213.95;;;8.50;99.90;;;;;;6200469;23;20072;-75
2024/01/17 10:48:51;;;;;;;324.13;215.75;;;8.50;99.90;;;;;;6198428;23;20025;-76
2024/01/17 10:51:24;;;;;;;384.27;254.45;;;8.50;99.90;;;;;;6195918;23;20033;-77
2024/01/17 10:53:55;;;;;;;360.98;243.68;;;8.60;99.90;;;;;;6195270;23;20044;-76
2024/01/17 10:56:23;;;;;;;352.15;237.30;;;8.70;99.90;;;;;;6195164;23;20071;-74
2024/01/17 10:58:52;;;;;;;356.05;235.40;;;8.80;99.90;;;;;;6195401;23;20107;-76
2024/01/17 11:01:26;;;;;;;387.48;261.70;;;9.00;99.90;;;;;;6196593;23;20016;-74
2024/01/17 11:03:56;;;;;;;395.17;265.92;;;9.10;99.90;;;;;;6195269;23;20176;-74
2024/01/17 11:06:25;;;;;;;378.90;259.15;;;9.20;99.90;;;;;;6182879;23;20033;-76
2024/01/17 11:08:54;;;;;;;383.52;260.92;;;9.40;99.90;;;;;;6158247;23;20021;-74
2024/01/17 11:11:25;;;;;;;360.80;252.63;;;9.30;65.30;;;;;;6158827;23;20021;-76
2024/01/17 11:13:55;;;;;;;351.17;242.35;;;9.40;89.40;;;;;;6195697;23;20013;-76
2024/01/17 11:16:26;;;;;;;352.95;238.25;;;9.50;20.80;;;;;;6196124;23;20037;-78
2024/01/17 11:18:57;;;;;;;352.27;239.57;;;9.60;1.00;;;;;;6197789;23;20616;-77
2024/01/17 11:21:26;;;;;;;347.25;232.98;;;9.50;1.00;;;;;;6197726;23;20104;-74
2024/01/17 11:24:05;;;;;;;342.08;236.45;;;9.60;1.00;;;;;;6185853;23;20033;-74
2024/01/17 11:26:36;;;;;;;353.77;241.95;;;9.60;1.00;;;;;;6198154;23;20041;-77
2024/01/17 11:29:16;;;;;;;351.35;246.15;;;9.70;1.00;;;;;;6195827;23;20023;-74
2024/01/17 11:31:54;;;;;;;370.52;257.45;;;9.70;1.00;;;;;;6195544;23;20087;-76
2024/01/17 11:34:22;;;;;;;365.70;256.25;;;9.70;1.50;;;;;;6155748;23;20021;-76
2024/01/17 11:36:50;;;;;;;362.17;262.42;;;9.80;1.00;;;;;;6190966;23;20040;-76
2024/01/17 11:39:19;;;;;;;378.25;271.65;;;9.80;1.00;;;;;;6161377;23;20072;-77
2024/01/17 11:41:49;;;;;;;367.73;256.45;;;9.80;1.00;;;;;;6165431;23;20016;-75
2024/01/17 11:44:19;;;;;;;374.13;262.60;;;9.80;1.00;;;;;;6202022;23;20017;-75
2024/01/17 11:46:49;;;;;;;372.75;260.23;;;9.80;1.00;;;;;;6188594;23;20021;-75
2024/01/17 11:49:27;;;;;;;363.10;252.00;;;9.80;1.00;;;;;;6165389;23;20458;-74
2024/01/17 11:51:54;;;;;;;354.95;251.80;;;9.80;1.00;;;;;;6199526;23;20044;-76
2024/01/17 11:54:26;;;;;;;371.00;261.70;;;9.90;1.00;;;;;;6161987;23;20351;-76
2024/01/17 11:56:58;;;;;;;357.90;247.15;;;10.10;1.00;;;;;;6197902;23;20044;-77
2024/01/17 11:59:29;;;;;;;387.15;274.30;;;10.20;1.00;;;;;;6197951;23;20068;-75
2024/01/17 12:01:56;;;;;;;397.23;288.90;;;10.30;1.00;;;;;;6195787;23;20036;-75
2024/01/17 12:04:23;;;;;;;409.33;292.70;;;10.30;1.00;;;;;;6194287;23;20025;-74
2024/01/17 12:06:53;;;;;;;427.58;308.50;;;10.30;1.00;;;;;;6194310;23;20450;-75
2024/01/17 12:09:20;;;;;;;484.70;342.55;;;10.40;1.00;;;;;;6193531;23;20028;-72
2024/01/17 12:11:50;;;;;;;465.33;329.83;;;10.40;1.00;;;;;;6193184;23;20017;-74
2024/01/17 12:14:18;;;;;;;470.33;339.60;;;10.40;1.00;;;;;;6193004;23;20096;-74
2024/01/17 12:16:46;;;;;;;464.67;328.67;;;10.60;1.00;;;;;;6195246;23;20089;-75
2024/01/17 12:19:14;;;;;;;442.30;318.10;;;10.70;1.00;;;;;;6195071;23;20013;-73
2024/01/17 12:21:42;;;;;;;456.85;326.27;;;10.90;1.00;;;;;;6194879;23;20096;-74
2024/01/17 12:24:14;;;;;;;449.63;328.27;;;10.90;1.00;;;;;;6195183;23;20016;-73
2024/01/17 12:26:43;;;;;;;441.77;317.45;;;10.90;1.00;;;;;;6194233;23;20379;-76
2024/01/17 12:29:14;;;;;;;477.50;344.80;;;11.10;1.00;;;;;;6213940;23;20013;-74
2024/01/17 12:31:41;;;;;;;432.13;310.90;;;11.20;1.00;;;;;;6207199;23;20032;-74